createdAt,value
2023-07-07T00:01:31.888Z,94558.47
2023-07-07T00:03:58.704Z,94554.34
2023-07-07T00:06:25.430Z,94554.94
2023-07-07T00:08:52.307Z,94549.53
2023-07-07T00:11:19.064Z,94552.59
2023-07-07T00:13:45.800Z,94552.53
2023-07-07T00:16:12.601Z,94554.72
2023-07-07T00:18:39.414Z,94555.84
2023-07-07T00:21:06.677Z,94562.47
2023-07-07T00:23:40.070Z,94553.84
2023-07-07T00:26:09.431Z,94560.81
2023-07-07T00:28:36.770Z,94559.59
2023-07-07T00:31:04.442Z,94566.16
2023-07-07T00:33:31.570Z,94560.88
2023-07-07T00:35:58.280Z,94568.84
2023-07-07T00:38:25.370Z,94568.69
2023-07-07T00:40:53.733Z,94567.06
2023-07-07T00:43:21.971Z,94569.00
2023-07-07T00:45:48.711Z,94565.34
2023-07-07T00:48:27.790Z,94569.63
2023-07-07T00:51:24.320Z,94568.31
2023-07-07T00:53:53.899Z,94560.03
2023-07-07T00:56:27.320Z,94570.16
2023-07-07T00:58:59.477Z,94566.66
2023-07-07T01:01:26.691Z,94569.72
2023-07-07T01:03:57.720Z,94563.88
2023-07-07T01:06:28.937Z,94568.84
2023-07-07T01:09:01.431Z,94560.25
2023-07-07T01:11:29.267Z,94566.84
2023-07-07T01:13:58.367Z,94570.19
2023-07-07T01:16:42.890Z,94568.44
2023-07-07T01:19:17.354Z,94574.88
2023-07-07T01:22:13.394Z,94583.69
2023-07-07T01:24:48.042Z,94575.06
2023-07-07T01:27:58.687Z,94578.13
2023-07-07T01:30:37.752Z,94576.41
2023-07-07T01:33:09.353Z,94574.94
2023-07-07T01:35:36.359Z,94573.09
2023-07-07T01:38:04.553Z,94578.91
2023-07-07T01:40:34.199Z,94581.72
2023-07-07T01:43:07.718Z,94575.53
2023-07-07T01:45:47.420Z,94584.31
2023-07-07T01:48:25.281Z,94584.75
2023-07-07T01:50:52.949Z,94583.19
2023-07-07T01:53:28.918Z,94581.63
2023-07-07T01:56:00.186Z,94586.22
2023-07-07T01:58:29.324Z,94586.13
2023-07-07T02:00:58.607Z,94587.72
2023-07-07T02:03:27.748Z,94584.41
2023-07-07T02:05:54.467Z,94584.41
2023-07-07T02:08:21.231Z,94582.38
2023-07-07T02:10:48.058Z,94577.22
2023-07-07T02:13:14.768Z,94574.53
2023-07-07T02:15:41.592Z,94585.78
2023-07-07T02:18:08.464Z,94582.63
2023-07-07T02:20:35.304Z,94583.31
2023-07-07T02:23:02.141Z,94577.13
2023-07-07T02:25:30.537Z,94577.91
2023-07-07T02:27:57.221Z,94582.00
2023-07-07T02:30:26.478Z,94585.41
2023-07-07T02:32:53.370Z,94569.00
2023-07-07T02:35:20.128Z,94571.25
2023-07-07T02:37:46.889Z,94579.34
2023-07-07T02:40:13.723Z,94577.34
2023-07-07T02:42:42.873Z,94576.78
2023-07-07T02:45:09.988Z,94574.03
2023-07-07T02:47:36.834Z,94573.91
2023-07-07T02:50:04.201Z,94578.53
2023-07-07T02:52:31.291Z,94575.28
2023-07-07T02:54:58.026Z,94573.59
2023-07-07T02:57:24.822Z,94577.44
2023-07-07T02:59:51.538Z,94569.59
2023-07-07T03:02:18.439Z,94568.03
2023-07-07T03:04:50.618Z,94568.81
2023-07-07T03:07:17.363Z,94557.94
2023-07-07T03:09:44.424Z,94560.41
2023-07-07T03:12:11.915Z,94571.63
2023-07-07T03:14:38.621Z,94576.25
2023-07-07T03:17:07.355Z,94572.31
2023-07-07T03:19:42.694Z,94582.09
2023-07-07T03:22:16.083Z,94576.03
2023-07-07T03:24:53.827Z,94588.88
2023-07-07T03:27:38.266Z,94584.13
2023-07-07T03:30:09.938Z,94589.66
2023-07-07T03:32:51.614Z,94585.59
2023-07-07T03:35:19.830Z,94584.78
2023-07-07T03:37:46.630Z,94592.53
2023-07-07T03:40:14.397Z,94595.22
2023-07-07T03:42:41.328Z,94598.72
2023-07-07T03:45:11.416Z,94604.09
2023-07-07T03:47:39.016Z,94611.84
2023-07-07T03:50:09.249Z,94601.75
2023-07-07T03:52:36.422Z,94606.00
2023-07-07T03:55:04.050Z,94602.53
2023-07-07T03:57:30.802Z,94609.50
2023-07-07T03:59:57.498Z,94604.00
2023-07-07T04:02:24.243Z,94610.94
2023-07-07T04:04:51.181Z,94605.56
2023-07-07T04:07:18.023Z,94616.59
2023-07-07T04:09:44.735Z,94623.22
2023-07-07T04:12:11.582Z,94629.03
2023-07-07T04:14:38.293Z,94617.50
2023-07-07T04:17:05.382Z,94620.28
2023-07-07T04:19:32.067Z,94619.94
2023-07-07T04:21:58.972Z,94629.94
2023-07-07T04:24:25.667Z,94632.97
2023-07-07T04:26:52.419Z,94639.13
2023-07-07T04:29:19.225Z,94636.09
2023-07-07T04:31:47.159Z,94638.56
2023-07-07T04:34:15.777Z,94641.94
2023-07-07T04:36:45.748Z,94644.84
2023-07-07T04:39:13.035Z,94645.03
2023-07-07T04:41:39.990Z,94641.44
2023-07-07T04:44:06.737Z,94651.28
2023-07-07T04:46:39.482Z,94643.41
2023-07-07T04:49:08.816Z,94647.19
2023-07-07T04:51:41.768Z,94645.13
2023-07-07T04:54:12.688Z,94642.72
2023-07-07T04:56:39.865Z,94654.16
2023-07-07T04:59:08.121Z,94650.88
2023-07-07T05:01:35.110Z,94653.94
2023-07-07T05:04:03.576Z,94660.16
2023-07-07T05:06:34.054Z,94658.69
2023-07-07T05:09:02.494Z,94653.66
2023-07-07T05:11:31.445Z,94645.03
2023-07-07T05:13:58.979Z,94650.13
2023-07-07T05:16:28.627Z,94659.06
2023-07-07T05:18:55.394Z,94649.78
2023-07-07T05:21:24.300Z,94649.00
2023-07-07T05:23:53.412Z,94652.78
2023-07-07T05:26:22.006Z,94647.25
2023-07-07T05:28:49.636Z,94650.78
2023-07-07T05:31:16.360Z,94661.88
2023-07-07T05:33:43.115Z,94655.81
2023-07-07T05:36:10.460Z,94666.47
2023-07-07T05:38:40.006Z,94672.09
2023-07-07T05:41:07.274Z,94668.34
2023-07-07T05:43:37.355Z,94662.63
2023-07-07T05:46:06.688Z,94656.50
2023-07-07T05:48:33.519Z,94671.25
2023-07-07T05:51:05.001Z,94663.69
2023-07-07T05:53:31.976Z,94668.53
2023-07-07T05:56:10.717Z,94666.91
2023-07-07T05:58:37.931Z,94668.16
2023-07-07T06:01:05.124Z,94670.59
2023-07-07T06:03:33.422Z,94666.19
2023-07-07T06:06:00.318Z,94665.75
2023-07-07T06:08:27.021Z,94675.28
2023-07-07T06:10:54.130Z,94670.44
2023-07-07T06:13:25.596Z,94669.00
2023-07-07T06:15:53.365Z,94672.91
2023-07-07T06:18:20.797Z,94681.28
2023-07-07T06:20:51.647Z,94674.44
2023-07-07T06:23:18.407Z,94682.88
2023-07-07T06:25:45.292Z,94678.97
2023-07-07T06:28:11.993Z,94681.00
2023-07-07T06:30:38.742Z,94684.28
2023-07-07T06:33:05.529Z,94685.16
2023-07-07T06:35:33.474Z,94683.22
2023-07-07T06:38:00.272Z,94678.34
2023-07-07T06:40:27.110Z,94679.19
2023-07-07T06:42:56.373Z,94678.53
2023-07-07T06:45:24.447Z,94689.88
2023-07-07T06:47:51.182Z,94693.41
2023-07-07T06:50:23.277Z,94701.69
2023-07-07T06:52:50.060Z,94701.06
2023-07-07T06:55:16.784Z,94696.06
2023-07-07T06:57:43.519Z,94691.69
2023-07-07T07:00:10.917Z,94704.25
2023-07-07T07:02:37.696Z,94711.25
2023-07-07T07:05:04.721Z,94712.31
2023-07-07T07:07:33.224Z,94715.47
2023-07-07T07:10:03.704Z,94706.59
2023-07-07T07:12:31.698Z,94712.09
2023-07-07T07:14:58.578Z,94709.78
2023-07-07T07:17:26.279Z,94713.31
2023-07-07T07:19:53.829Z,94703.25
2023-07-07T07:22:21.238Z,94702.50
2023-07-07T07:24:47.954Z,94703.69
2023-07-07T07:27:14.939Z,94704.50
2023-07-07T07:29:44.666Z,94705.34
2023-07-07T07:32:11.920Z,94707.72
2023-07-07T07:34:39.209Z,94710.06
2023-07-07T07:37:06.921Z,94712.03
2023-07-07T07:39:34.369Z,94709.28
2023-07-07T07:42:01.258Z,94709.25
2023-07-07T07:44:27.994Z,94713.53
2023-07-07T07:46:57.202Z,94706.88
2023-07-07T07:49:25.516Z,94715.13
2023-07-07T07:51:52.279Z,94705.31
2023-07-07T07:54:20.977Z,94714.63
2023-07-07T07:56:47.842Z,94715.06
2023-07-07T07:59:15.102Z,94717.59
2023-07-07T08:01:42.357Z,94718.75
2023-07-07T08:04:09.515Z,94720.69
2023-07-07T08:06:36.310Z,94720.28
2023-07-07T08:09:04.710Z,94731.97
2023-07-07T08:11:43.711Z,94733.13
2023-07-07T08:14:11.608Z,94735.47
2023-07-07T08:16:38.494Z,94738.47
2023-07-07T08:21:32.029Z,94738.69
2023-07-07T08:23:58.851Z,94729.72
2023-07-07T08:26:26.704Z,94741.75
2023-07-07T08:28:53.930Z,94739.19
2023-07-07T08:31:20.661Z,94734.41
2023-07-07T08:33:57.691Z,94734.63
2023-07-07T08:36:27.719Z,94736.78
2023-07-07T08:38:54.497Z,94734.91
2023-07-07T08:41:21.329Z,94747.81
2023-07-07T08:43:49.107Z,94727.34
2023-07-07T08:46:27.066Z,94737.25
2023-07-07T08:49:06.125Z,94733.34
2023-07-07T08:51:40.517Z,94736.91
2023-07-07T08:54:46.691Z,94743.97
2023-07-07T08:57:15.935Z,94738.34
2023-07-07T09:00:00.924Z,94742.47
2023-07-07T09:02:30.611Z,94743.41
2023-07-07T09:05:09.662Z,94746.91
2023-07-07T09:07:47.496Z,94738.59
2023-07-07T09:10:39.418Z,94746.41
2023-07-07T09:13:22.005Z,94744.50
2023-07-07T09:16:22.047Z,94735.13
2023-07-07T09:19:05.719Z,94734.53
2023-07-07T09:21:53.868Z,94735.56
2023-07-07T09:24:28.118Z,94735.06
2023-07-07T09:27:01.011Z,94735.63
2023-07-07T09:29:32.153Z,94738.00
2023-07-07T09:32:04.225Z,94733.88
2023-07-07T09:34:34.190Z,94728.88
2023-07-07T09:37:37.896Z,94724.50
2023-07-07T09:40:21.205Z,94731.50
2023-07-07T09:42:58.340Z,94735.13
2023-07-07T09:46:00.152Z,94710.72
2023-07-07T09:48:34.678Z,94718.53
2023-07-07T09:51:12.355Z,94719.22
2023-07-07T09:53:47.288Z,94706.22
2023-07-07T09:56:30.699Z,94708.69
2023-07-07T09:59:07.299Z,94704.81
2023-07-07T10:01:43.252Z,94722.16
2023-07-07T10:04:16.493Z,94707.09
2023-07-07T10:06:53.412Z,94717.94
2023-07-07T10:09:20.148Z,94706.44
2023-07-07T10:12:14.457Z,94702.94
2023-07-07T10:14:35.786Z,94707.88
2023-07-07T10:17:20.507Z,94712.97
2023-07-07T10:20:00.350Z,94706.03
2023-07-07T10:22:27.087Z,94711.31
2023-07-07T10:24:53.810Z,94704.72
2023-07-07T10:27:24.837Z,94692.16
2023-07-07T10:29:51.554Z,94709.00
2023-07-07T10:32:22.388Z,94708.84
2023-07-07T10:34:53.210Z,94710.91
2023-07-07T10:37:22.661Z,94709.66
2023-07-07T10:39:58.054Z,94710.22
2023-07-07T10:42:26.305Z,94698.91
2023-07-07T10:44:55.268Z,94693.56
2023-07-07T10:47:32.285Z,94712.69
2023-07-07T10:50:00.701Z,94699.75
2023-07-07T10:55:32.909Z,94701.34
2023-07-07T10:58:02.652Z,94693.59
2023-07-07T11:00:56.874Z,94689.91
2023-07-07T11:03:58.508Z,94686.44
2023-07-07T11:06:31.975Z,94695.16
2023-07-07T11:09:05.688Z,94687.94
2023-07-07T11:11:52.558Z,94686.91
2023-07-07T11:14:36.280Z,94685.06
2023-07-07T11:17:13.300Z,94682.13
2023-07-07T11:19:58.321Z,94689.66
2023-07-07T11:22:46.837Z,94684.59
2023-07-07T11:25:38.586Z,94688.88
2023-07-07T11:28:34.631Z,94688.81
2023-07-07T11:31:37.447Z,94686.63
2023-07-07T11:34:24.862Z,94686.09
2023-07-07T11:37:09.091Z,94684.31
2023-07-07T11:39:47.896Z,94691.44
2023-07-07T11:42:33.613Z,94687.03
2023-07-07T11:45:32.378Z,94686.13
2023-07-07T11:48:25.634Z,94684.38
2023-07-07T11:50:58.675Z,94689.69
2023-07-07T11:53:40.753Z,94671.13
2023-07-07T11:56:45.553Z,94676.66
2023-07-07T11:59:49.537Z,94679.69
2023-07-07T12:02:40.216Z,94679.41
2023-07-07T12:05:14.285Z,94678.06
2023-07-07T12:07:48.716Z,94678.19
2023-07-07T12:10:20.411Z,94675.50
2023-07-07T12:12:55.481Z,94685.69
2023-07-07T12:15:28.927Z,94681.28
2023-07-07T12:18:17.302Z,94673.94
2023-07-07T12:20:47.970Z,94663.00
2023-07-07T12:23:21.077Z,94659.00
2023-07-07T12:25:47.930Z,94670.31
2023-07-07T12:28:15.157Z,94658.38
2023-07-07T12:30:48.045Z,94659.16
2023-07-07T12:33:16.530Z,94655.41
2023-07-07T12:36:00.677Z,94668.78
2023-07-07T12:38:33.471Z,94645.00
2023-07-07T12:41:25.689Z,94659.31
2023-07-07T12:43:57.911Z,94652.72
2023-07-07T12:46:30.416Z,94662.03
2023-07-07T12:49:00.332Z,94659.91
2023-07-07T12:51:34.006Z,94654.19
2023-07-07T12:54:00.742Z,94648.19
2023-07-07T12:56:32.770Z,94652.19
2023-07-07T12:59:01.249Z,94642.19
2023-07-07T13:01:39.532Z,94648.38
2023-07-07T13:04:06.497Z,94642.41
2023-07-07T13:06:33.403Z,94645.84
2023-07-07T13:09:15.432Z,94645.72
2023-07-07T13:11:46.248Z,94638.31
2023-07-07T13:14:40.291Z,94641.91
2023-07-07T13:17:23.780Z,94633.50
2023-07-07T13:20:01.781Z,94631.38
2023-07-07T13:23:10.391Z,94634.84
2023-07-07T13:25:38.541Z,94625.25
2023-07-07T13:28:12.089Z,94638.25
2023-07-07T13:30:42.812Z,94629.63
2023-07-07T13:33:13.609Z,94633.84
2023-07-07T13:35:46.429Z,94632.38
2023-07-07T13:38:19.264Z,94627.81
2023-07-07T13:40:47.999Z,94626.59
2023-07-07T13:43:30.707Z,94627.19
2023-07-07T13:46:03.315Z,94623.44
2023-07-07T13:48:33.886Z,94616.75
2023-07-07T13:51:12.421Z,94627.34
2023-07-07T13:53:39.712Z,94616.09
2023-07-07T13:56:07.199Z,94622.94
2023-07-07T13:58:34.342Z,94621.84
2023-07-07T14:01:04.038Z,94614.44
2023-07-07T14:03:33.884Z,94615.72
2023-07-07T14:06:16.173Z,94615.72
2023-07-07T14:08:43.283Z,94608.75
2023-07-07T14:11:21.785Z,94606.19
2023-07-07T14:14:00.600Z,94605.75
2023-07-07T14:16:35.856Z,94601.78
2023-07-07T14:19:09.726Z,94607.66
2023-07-07T14:21:36.714Z,94604.00
2023-07-07T14:24:03.901Z,94600.38
2023-07-07T14:26:31.437Z,94599.53
2023-07-07T14:28:59.157Z,94569.00
2023-07-07T14:31:26.920Z,94583.19
2023-07-07T14:34:04.187Z,94587.78
2023-07-07T14:36:38.165Z,94582.84
2023-07-07T14:39:23.734Z,94589.34
2023-07-07T14:41:52.827Z,94592.41
2023-07-07T14:44:56.268Z,94577.47
2023-07-07T14:47:34.733Z,94582.91
2023-07-07T14:50:10.435Z,94584.56
2023-07-07T14:52:44.921Z,94566.34
2023-07-07T14:55:22.299Z,94572.69
2023-07-07T14:57:54.438Z,94572.94
2023-07-07T15:00:31.807Z,94591.69
2023-07-07T15:02:58.979Z,94587.94
2023-07-07T15:05:30.121Z,94576.91
2023-07-07T15:08:07.184Z,94582.88
2023-07-07T15:10:34.755Z,94582.22
2023-07-07T15:13:01.947Z,94568.63
2023-07-07T15:15:28.863Z,94574.34
2023-07-07T15:17:55.698Z,94561.97
2023-07-07T15:20:22.618Z,94557.44
2023-07-07T15:22:49.345Z,94563.38
2023-07-07T15:25:16.160Z,94556.56
2023-07-07T15:27:43.105Z,94546.56
2023-07-07T15:30:18.734Z,94557.97
2023-07-07T15:32:46.351Z,94559.59
2023-07-07T15:35:19.004Z,94547.03
2023-07-07T15:37:49.261Z,94556.09
2023-07-07T15:40:22.225Z,94553.22
2023-07-07T15:42:52.543Z,94550.03
2023-07-07T15:45:19.512Z,94557.50
2023-07-07T15:47:47.565Z,94550.75
2023-07-07T15:50:21.209Z,94540.06
2023-07-07T15:52:48.151Z,94554.22
2023-07-07T15:55:15.036Z,94540.09
2023-07-07T15:57:41.781Z,94558.22
2023-07-07T16:00:29.718Z,94552.31
2023-07-07T16:02:56.473Z,94546.25
2023-07-07T16:05:24.023Z,94544.69
2023-07-07T16:07:51.022Z,94541.94
2023-07-07T16:10:17.872Z,94545.09
2023-07-07T16:12:44.576Z,94537.00
2023-07-07T16:15:11.423Z,94533.03
2023-07-07T16:17:38.193Z,94539.50
2023-07-07T16:20:22.812Z,94545.66
2023-07-07T16:22:59.042Z,94550.59
2023-07-07T16:25:27.765Z,94552.28
2023-07-07T16:27:55.739Z,94550.75
2023-07-07T16:30:34.819Z,94548.63
2023-07-07T16:33:01.566Z,94546.56
2023-07-07T16:35:28.967Z,94545.34
2023-07-07T16:37:55.701Z,94538.88
2023-07-07T16:40:36.665Z,94547.84
2023-07-07T16:43:04.569Z,94551.47
2023-07-07T16:45:31.734Z,94547.84
2023-07-07T16:47:58.520Z,94543.81
2023-07-07T16:50:25.233Z,94541.66
2023-07-07T16:52:54.657Z,94548.22
2023-07-07T16:55:21.374Z,94539.84
2023-07-07T16:57:48.168Z,94544.78
2023-07-07T17:00:26.877Z,94543.13
2023-07-07T17:02:54.352Z,94545.28
2023-07-07T17:05:23.298Z,94543.22
2023-07-07T17:07:50.271Z,94543.56
2023-07-07T17:10:19.181Z,94553.03
2023-07-07T17:12:45.933Z,94543.09
2023-07-07T17:15:14.263Z,94540.78
2023-07-07T17:17:41.421Z,94542.13
2023-07-07T17:20:23.230Z,94545.84
2023-07-07T17:22:50.906Z,94545.31
2023-07-07T17:25:19.730Z,94545.44
2023-07-07T17:27:48.241Z,94548.19
2023-07-07T17:30:21.505Z,94546.34
2023-07-07T17:32:49.054Z,94542.47
2023-07-07T17:35:17.680Z,94540.22
2023-07-07T17:37:47.365Z,94534.00
2023-07-07T17:40:35.792Z,94539.09
2023-07-07T17:43:02.687Z,94537.28
2023-07-07T17:45:29.368Z,94531.19
2023-07-07T17:47:56.130Z,94530.06
2023-07-07T17:50:26.590Z,94529.47
2023-07-07T17:52:53.456Z,94531.59
2023-07-07T17:55:22.113Z,94523.13
2023-07-07T17:57:49.603Z,94525.38
2023-07-07T18:00:18.122Z,94528.69
2023-07-07T18:02:45.156Z,94524.47
2023-07-07T18:05:12.010Z,94527.34
2023-07-07T18:07:38.774Z,94534.50
2023-07-07T18:10:19.533Z,94533.47
2023-07-07T18:12:50.971Z,94528.03
2023-07-07T18:15:18.322Z,94521.47
2023-07-07T18:17:59.417Z,94531.31
2023-07-07T18:21:44.380Z,94537.38
2023-07-07T18:23:31.152Z,94528.88
2023-07-07T18:25:58.221Z,94536.81
2023-07-07T18:28:25.196Z,94531.81
2023-07-07T18:30:56.832Z,94519.78
2023-07-07T18:33:24.277Z,94518.28
2023-07-07T18:35:51.373Z,94528.94
2023-07-07T18:38:21.635Z,94525.94
2023-07-07T18:40:48.335Z,94522.59
2023-07-07T18:43:15.112Z,94526.56
2023-07-07T18:45:41.952Z,94519.94
2023-07-07T18:48:14.335Z,94522.69
2023-07-07T18:50:41.169Z,94526.38
2023-07-07T18:53:08.764Z,94525.75
2023-07-07T18:55:35.509Z,94518.84
2023-07-07T18:58:02.241Z,94522.81
2023-07-07T19:00:43.180Z,94517.81
2023-07-07T19:03:12.534Z,94520.28
2023-07-07T19:05:40.053Z,94518.41
2023-07-07T19:08:12.419Z,94524.72
2023-07-07T19:10:41.547Z,94525.97
2023-07-07T19:13:16.946Z,94521.75
2023-07-07T19:15:46.914Z,94525.75
2023-07-07T19:18:40.654Z,94530.56
2023-07-07T19:21:25.380Z,94531.44
2023-07-07T19:23:53.070Z,94529.94
2023-07-07T19:26:33.812Z,94526.91
2023-07-07T19:29:05.889Z,94531.25
2023-07-07T19:31:34.213Z,94530.91
2023-07-07T19:34:01.352Z,94528.28
2023-07-07T19:36:30.777Z,94543.94
2023-07-07T19:38:57.891Z,94533.41
2023-07-07T19:41:27.355Z,94538.94
2023-07-07T19:43:54.276Z,94537.81
2023-07-07T19:46:33.339Z,94542.59
2023-07-07T19:49:02.149Z,94545.34
2023-07-07T19:51:33.632Z,94546.97
2023-07-07T19:54:01.906Z,94548.16
2023-07-07T19:56:29.678Z,94543.53
2023-07-07T19:58:58.827Z,94541.63
2023-07-07T20:01:32.262Z,94539.69
2023-07-07T20:03:59.105Z,94537.81
2023-07-07T20:06:29.630Z,94545.63
2023-07-07T20:08:56.531Z,94551.53
2023-07-07T20:11:32.970Z,94549.59
2023-07-07T20:13:59.953Z,94554.34
2023-07-07T20:16:50.977Z,94559.78
2023-07-07T20:19:22.408Z,94557.47
2023-07-07T20:21:50.732Z,94557.50
2023-07-07T20:24:21.618Z,94556.75
2023-07-07T20:26:49.915Z,94559.88
2023-07-07T20:29:18.271Z,94554.06
2023-07-07T20:31:45.731Z,94550.53
2023-07-07T20:34:13.258Z,94553.69
2023-07-07T20:36:42.212Z,94552.94
2023-07-07T20:39:14.216Z,94553.38
2023-07-07T20:41:41.336Z,94550.25
2023-07-07T20:44:08.114Z,94548.31
2023-07-07T20:46:41.129Z,94551.44
2023-07-07T20:49:19.821Z,94556.97
2023-07-07T20:51:47.677Z,94549.19
2023-07-07T20:54:15.125Z,94545.28
2023-07-07T20:56:42.452Z,94544.91
2023-07-07T20:59:27.976Z,94541.44
2023-07-07T21:01:56.762Z,94550.81
2023-07-07T21:04:24.079Z,94559.03
2023-07-07T21:06:50.951Z,94558.69
2023-07-07T21:09:18.127Z,94558.69
2023-07-07T21:11:44.870Z,94560.25
2023-07-07T21:14:11.713Z,94563.38
2023-07-07T21:16:49.139Z,94564.53
2023-07-07T21:19:15.939Z,94568.06
2023-07-07T21:21:43.088Z,94563.38
2023-07-07T21:24:09.793Z,94563.81
2023-07-07T21:26:37.141Z,94556.78
2023-07-07T21:29:09.701Z,94561.09
2023-07-07T21:31:37.675Z,94565.38
2023-07-07T21:34:29.374Z,94566.53
2023-07-07T21:36:56.138Z,94564.97
2023-07-07T21:39:28.193Z,94572.38
2023-07-07T21:42:10.979Z,94571.22
2023-07-07T21:44:41.226Z,94565.75
2023-07-07T21:47:12.577Z,94571.22
2023-07-07T21:49:39.327Z,94560.31
2023-07-07T21:52:14.240Z,94564.19
2023-07-07T21:54:41.178Z,94576.69
2023-07-07T21:57:27.575Z,94556.78
2023-07-07T21:59:54.380Z,94568.50
2023-07-07T22:02:21.094Z,94561.88
2023-07-07T22:04:47.950Z,94563.03
2023-07-07T22:07:15.466Z,94561.06
2023-07-07T22:09:42.267Z,94564.19
2023-07-07T22:12:10.784Z,94562.63
2023-07-07T22:14:37.505Z,94553.31
2023-07-07T22:17:04.703Z,94555.66
2023-07-07T22:19:31.576Z,94554.88
2023-07-07T22:21:58.354Z,94563.44
2023-07-07T22:24:25.368Z,94553.31
2023-07-07T22:26:52.241Z,94550.97
2023-07-07T22:29:18.997Z,94549.00
2023-07-07T22:31:45.770Z,94537.31
2023-07-07T22:34:12.553Z,94519.78
2023-07-07T22:36:41.382Z,94537.72
2023-07-07T22:39:12.852Z,94538.09
2023-07-07T22:41:39.677Z,94525.25
2023-07-07T22:44:06.373Z,94515.09
2023-07-07T22:46:41.050Z,94520.94
2023-07-07T22:49:12.671Z,94528.75
2023-07-07T22:51:41.815Z,94526.41
2023-07-07T22:54:08.515Z,94531.84
2023-07-07T22:56:37.454Z,94524.06
2023-07-07T22:59:18.610Z,94515.09
2023-07-07T23:01:45.339Z,94529.91
2023-07-07T23:04:12.198Z,94526.00
2023-07-07T23:06:39.868Z,94521.72
2023-07-07T23:09:45.649Z,94524.84
2023-07-07T23:12:17.640Z,94532.63
2023-07-07T23:14:46.212Z,94524.41
2023-07-07T23:17:23.133Z,94527.91
2023-07-07T23:19:57.068Z,94522.47
2023-07-07T23:22:32.924Z,94527.50
2023-07-07T23:25:01.138Z,94520.47
2023-07-07T23:27:36.321Z,94520.09
2023-07-07T23:30:08.771Z,94524.38
2023-07-07T23:32:35.510Z,94515.81
2023-07-07T23:35:02.743Z,94515.41
2023-07-07T23:37:30.947Z,94498.63
2023-07-07T23:39:58.549Z,94505.66
2023-07-07T23:42:27.097Z,94495.50
2023-07-07T23:44:54.613Z,94481.13
2023-07-07T23:47:22.548Z,94502.53
2023-07-07T23:49:49.345Z,94499.78
2023-07-07T23:52:20.071Z,94509.50
2023-07-07T23:54:47.012Z,94498.19
2023-07-07T23:57:20.887Z,94505.59
2023-07-07T23:59:47.711Z,94499.72
